sensor_id;sensor_type;location;lat;lon;timestamp;P1;durP1;ratioP1;P2;durP2;ratioP2
25073;SDS011;13066;52.042;5.648;2023-04-06T00:02:10;13.18;;;7.90;;
25073;SDS011;13066;52.042;5.648;2023-04-06T00:04:39;15.93;;;7.53;;
25073;SDS011;13066;52.042;5.648;2023-04-06T00:07:06;14.07;;;7.60;;
25073;SDS011;13066;52.042;5.648;2023-04-06T00:09:34;16.60;;;8.70;;
25073;SDS011;13066;52.042;5.648;2023-04-06T00:12:02;14.85;;;7.20;;
25073;SDS011;13066;52.042;5.648;2023-04-06T00:14:31;13.50;;;7.40;;
25073;SDS011;13066;52.042;5.648;2023-04-06T00:17:00;17.60;;;8.30;;
25073;SDS011;13066;52.042;5.648;2023-04-06T00:19:28;14.63;;;8.02;;
25073;SDS011;13066;52.042;5.648;2023-04-06T00:21:56;13.60;;;7.75;;
25073;SDS011;13066;52.042;5.648;2023-04-06T00:24:24;14.52;;;8.15;;
25073;SDS011;13066;52.042;5.648;2023-04-06T00:26:52;16.35;;;8.60;;
25073;SDS011;13066;52.042;5.648;2023-04-06T00:29:20;15.18;;;8.18;;
25073;SDS011;13066;52.042;5.648;2023-04-06T00:31:48;14.77;;;7.85;;
25073;SDS011;13066;52.042;5.648;2023-04-06T00:34:18;13.40;;;7.35;;
25073;SDS011;13066;52.042;5.648;2023-04-06T00:36:46;13.05;;;7.35;;
25073;SDS011;13066;52.042;5.648;2023-04-06T00:39:14;15.13;;;7.53;;
25073;SDS011;13066;52.042;5.648;2023-04-06T00:41:45;14.38;;;7.38;;
25073;SDS011;13066;52.042;5.648;2023-04-06T00:44:14;14.80;;;7.57;;
25073;SDS011;13066;52.042;5.648;2023-04-06T00:46:42;12.63;;;7.15;;
25073;SDS011;13066;52.042;5.648;2023-04-06T00:49:10;11.68;;;7.43;;
25073;SDS011;13066;52.042;5.648;2023-04-06T00:51:40;14.30;;;7.18;;
25073;SDS011;13066;52.042;5.648;2023-04-06T00:54:08;13.25;;;7.63;;
25073;SDS011;13066;52.042;5.648;2023-04-06T00:56:36;13.00;;;7.40;;
25073;SDS011;13066;52.042;5.648;2023-04-06T00:59:04;15.93;;;7.70;;
25073;SDS011;13066;52.042;5.648;2023-04-06T01:01:33;12.80;;;7.13;;
25073;SDS011;13066;52.042;5.648;2023-04-06T01:04:09;13.88;;;8.18;;
25073;SDS011;13066;52.042;5.648;2023-04-06T01:06:42;14.23;;;7.57;;
25073;SDS011;13066;52.042;5.648;2023-04-06T01:09:10;11.27;;;7.13;;
25073;SDS011;13066;52.042;5.648;2023-04-06T01:11:38;16.83;;;7.80;;
25073;SDS011;13066;52.042;5.648;2023-04-06T01:14:10;16.77;;;7.68;;
25073;SDS011;13066;52.042;5.648;2023-04-06T01:16:48;17.25;;;8.18;;
25073;SDS011;13066;52.042;5.648;2023-04-06T01:19:20;14.48;;;7.38;;
25073;SDS011;13066;52.042;5.648;2023-04-06T01:21:53;14.93;;;7.90;;
25073;SDS011;13066;52.042;5.648;2023-04-06T01:24:42;13.20;;;8.07;;
25073;SDS011;13066;52.042;5.648;2023-04-06T01:27:14;13.30;;;7.10;;
25073;SDS011;13066;52.042;5.648;2023-04-06T01:30:06;12.57;;;7.13;;
25073;SDS011;13066;52.042;5.648;2023-04-06T01:32:40;12.85;;;6.88;;
25073;SDS011;13066;52.042;5.648;2023-04-06T01:35:11;13.00;;;8.32;;
25073;SDS011;13066;52.042;5.648;2023-04-06T01:37:51;14.00;;;7.82;;
25073;SDS011;13066;52.042;5.648;2023-04-06T01:42:55;13.18;;;7.40;;
25073;SDS011;13066;52.042;5.648;2023-04-06T01:45:30;14.13;;;7.45;;
25073;SDS011;13066;52.042;5.648;2023-04-06T01:48:07;13.63;;;7.45;;
25073;SDS011;13066;52.042;5.648;2023-04-06T01:50:36;20.77;;;8.25;;
25073;SDS011;13066;52.042;5.648;2023-04-06T01:53:04;12.07;;;7.32;;
25073;SDS011;13066;52.042;5.648;2023-04-06T01:55:34;12.48;;;6.93;;
25073;SDS011;13066;52.042;5.648;2023-04-06T01:58:22;14.95;;;7.68;;
25073;SDS011;13066;52.042;5.648;2023-04-06T02:00:50;16.88;;;8.23;;
25073;SDS011;13066;52.042;5.648;2023-04-06T02:03:18;15.40;;;7.85;;
25073;SDS011;13066;52.042;5.648;2023-04-06T02:05:50;16.60;;;8.32;;
25073;SDS011;13066;52.042;5.648;2023-04-06T02:08:26;14.98;;;7.95;;
25073;SDS011;13066;52.042;5.648;2023-04-06T02:10:56;14.52;;;7.85;;
25073;SDS011;13066;52.042;5.648;2023-04-06T02:13:30;16.40;;;8.45;;
25073;SDS011;13066;52.042;5.648;2023-04-06T02:15:58;13.10;;;7.93;;
25073;SDS011;13066;52.042;5.648;2023-04-06T02:18:28;17.17;;;8.48;;
25073;SDS011;13066;52.042;5.648;2023-04-06T02:20:57;15.05;;;8.57;;
25073;SDS011;13066;52.042;5.648;2023-04-06T02:23:25;18.63;;;9.75;;
25073;SDS011;13066;52.042;5.648;2023-04-06T02:25:53;16.83;;;9.40;;
25073;SDS011;13066;52.042;5.648;2023-04-06T02:28:22;16.45;;;9.57;;
25073;SDS011;13066;52.042;5.648;2023-04-06T02:30:50;14.48;;;8.32;;
25073;SDS011;13066;52.042;5.648;2023-04-06T02:33:21;20.95;;;9.52;;
25073;SDS011;13066;52.042;5.648;2023-04-06T02:35:49;17.50;;;8.95;;
25073;SDS011;13066;52.042;5.648;2023-04-06T02:38:17;14.30;;;8.27;;
25073;SDS011;13066;52.042;5.648;2023-04-06T02:40:46;15.70;;;8.45;;
25073;SDS011;13066;52.042;5.648;2023-04-06T02:43:18;15.50;;;8.93;;
25073;SDS011;13066;52.042;5.648;2023-04-06T02:45:51;14.52;;;8.38;;
25073;SDS011;13066;52.042;5.648;2023-04-06T02:48:21;17.70;;;9.10;;
25073;SDS011;13066;52.042;5.648;2023-04-06T02:50:49;21.05;;;8.57;;
25073;SDS011;13066;52.042;5.648;2023-04-06T02:53:17;13.15;;;8.65;;
25073;SDS011;13066;52.042;5.648;2023-04-06T02:55:45;18.77;;;8.57;;
25073;SDS011;13066;52.042;5.648;2023-04-06T02:58:13;15.52;;;8.02;;
25073;SDS011;13066;52.042;5.648;2023-04-06T03:00:45;20.50;;;9.43;;
25073;SDS011;13066;52.042;5.648;2023-04-06T03:03:14;16.67;;;9.82;;
25073;SDS011;13066;52.042;5.648;2023-04-06T03:05:44;15.07;;;9.15;;
25073;SDS011;13066;52.042;5.648;2023-04-06T03:08:12;16.00;;;9.60;;
25073;SDS011;13066;52.042;5.648;2023-04-06T03:10:43;22.13;;;8.65;;
25073;SDS011;13066;52.042;5.648;2023-04-06T03:13:12;18.25;;;9.30;;
25073;SDS011;13066;52.042;5.648;2023-04-06T03:15:52;18.55;;;8.52;;
25073;SDS011;13066;52.042;5.648;2023-04-06T03:18:22;13.23;;;7.80;;
25073;SDS011;13066;52.042;5.648;2023-04-06T03:20:53;18.17;;;8.13;;
25073;SDS011;13066;52.042;5.648;2023-04-06T03:23:25;12.18;;;7.47;;
25073;SDS011;13066;52.042;5.648;2023-04-06T03:25:57;14.73;;;7.65;;
25073;SDS011;13066;52.042;5.648;2023-04-06T03:28:25;14.52;;;8.70;;
25073;SDS011;13066;52.042;5.648;2023-04-06T03:30:57;15.07;;;8.70;;
25073;SDS011;13066;52.042;5.648;2023-04-06T03:33:58;16.23;;;9.15;;
25073;SDS011;13066;52.042;5.648;2023-04-06T03:36:30;13.33;;;9.30;;
25073;SDS011;13066;52.042;5.648;2023-04-06T03:38:59;16.08;;;9.63;;
25073;SDS011;13066;52.042;5.648;2023-04-06T03:41:30;14.27;;;8.68;;
25073;SDS011;13066;52.042;5.648;2023-04-06T03:44:03;17.17;;;9.75;;
25073;SDS011;13066;52.042;5.648;2023-04-06T03:46:32;15.07;;;8.23;;
25073;SDS011;13066;52.042;5.648;2023-04-06T03:49:02;14.18;;;8.43;;
25073;SDS011;13066;52.042;5.648;2023-04-06T03:51:30;15.00;;;8.70;;
25073;SDS011;13066;52.042;5.648;2023-04-06T03:53:58;17.95;;;8.82;;
25073;SDS011;13066;52.042;5.648;2023-04-06T03:56:26;15.23;;;8.32;;
25073;SDS011;13066;52.042;5.648;2023-04-06T03:58:54;17.70;;;8.93;;
25073;SDS011;13066;52.042;5.648;2023-04-06T04:01:22;14.50;;;8.45;;
25073;SDS011;13066;52.042;5.648;2023-04-06T04:03:50;17.83;;;8.60;;
25073;SDS011;13066;52.042;5.648;2023-04-06T04:06:20;15.63;;;8.77;;
25073;SDS011;13066;52.042;5.648;2023-04-06T04:08:48;18.27;;;9.25;;
25073;SDS011;13066;52.042;5.648;2023-04-06T04:11:16;20.98;;;9.65;;
25073;SDS011;13066;52.042;5.648;2023-04-06T04:13:47;18.10;;;9.85;;
25073;SDS011;13066;52.042;5.648;2023-04-06T04:16:15;15.73;;;9.25;;
25073;SDS011;13066;52.042;5.648;2023-04-06T04:18:43;21.67;;;10.05;;
25073;SDS011;13066;52.042;5.648;2023-04-06T04:21:13;18.30;;;9.63;;
25073;SDS011;13066;52.042;5.648;2023-04-06T04:23:42;17.23;;;9.73;;
25073;SDS011;13066;52.042;5.648;2023-04-06T04:26:11;22.60;;;10.90;;
25073;SDS011;13066;52.042;5.648;2023-04-06T04:28:39;20.20;;;10.20;;
25073;SDS011;13066;52.042;5.648;2023-04-06T04:31:07;21.25;;;11.25;;
25073;SDS011;13066;52.042;5.648;2023-04-06T04:33:35;21.73;;;11.07;;
25073;SDS011;13066;52.042;5.648;2023-04-06T04:38:42;20.63;;;10.68;;
25073;SDS011;13066;52.042;5.648;2023-04-06T04:41:10;23.58;;;12.02;;
25073;SDS011;13066;52.042;5.648;2023-04-06T04:43:41;21.83;;;11.57;;
25073;SDS011;13066;52.042;5.648;2023-04-06T04:46:11;22.95;;;11.98;;
25073;SDS011;13066;52.042;5.648;2023-04-06T04:48:41;25.27;;;12.23;;
25073;SDS011;13066;52.042;5.648;2023-04-06T04:51:09;25.83;;;12.80;;
25073;SDS011;13066;52.042;5.648;2023-04-06T04:53:57;20.25;;;11.05;;
25073;SDS011;13066;52.042;5.648;2023-04-06T04:56:28;20.30;;;11.52;;
25073;SDS011;13066;52.042;5.648;2023-04-06T04:59:06;21.00;;;11.93;;
25073;SDS011;13066;52.042;5.648;2023-04-06T05:01:38;23.92;;;11.75;;
25073;SDS011;13066;52.042;5.648;2023-04-06T05:04:23;19.58;;;11.60;;
25073;SDS011;13066;52.042;5.648;2023-04-06T05:07:01;23.80;;;12.15;;
25073;SDS011;13066;52.042;5.648;2023-04-06T05:09:32;23.80;;;12.57;;
25073;SDS011;13066;52.042;5.648;2023-04-06T05:12:00;21.88;;;13.18;;
25073;SDS011;13066;52.042;5.648;2023-04-06T05:14:33;28.60;;;13.23;;
25073;SDS011;13066;52.042;5.648;2023-04-06T05:17:03;29.05;;;13.05;;
25073;SDS011;13066;52.042;5.648;2023-04-06T05:19:31;21.58;;;11.35;;
25073;SDS011;13066;52.042;5.648;2023-04-06T05:22:00;21.75;;;12.05;;
25073;SDS011;13066;52.042;5.648;2023-04-06T05:24:33;23.10;;;11.90;;
25073;SDS011;13066;52.042;5.648;2023-04-06T05:27:05;19.80;;;11.77;;
25073;SDS011;13066;52.042;5.648;2023-04-06T05:29:33;30.15;;;12.40;;
25073;SDS011;13066;52.042;5.648;2023-04-06T05:32:01;21.20;;;11.68;;
25073;SDS011;13066;52.042;5.648;2023-04-06T05:34:30;21.55;;;11.55;;
25073;SDS011;13066;52.042;5.648;2023-04-06T05:37:02;23.83;;;10.77;;
25073;SDS011;13066;52.042;5.648;2023-04-06T05:39:30;24.50;;;12.00;;
25073;SDS011;13066;52.042;5.648;2023-04-06T05:42:01;24.55;;;11.85;;
25073;SDS011;13066;52.042;5.648;2023-04-06T05:44:43;24.42;;;12.65;;
25073;SDS011;13066;52.042;5.648;2023-04-06T05:47:14;22.17;;;11.93;;
25073;SDS011;13066;52.042;5.648;2023-04-06T05:49:45;22.67;;;12.25;;
25073;SDS011;13066;52.042;5.648;2023-04-06T05:52:20;25.08;;;12.50;;
25073;SDS011;13066;52.042;5.648;2023-04-06T05:54:48;27.17;;;12.70;;
25073;SDS011;13066;52.042;5.648;2023-04-06T05:57:18;22.58;;;12.35;;
25073;SDS011;13066;52.042;5.648;2023-04-06T05:59:47;21.05;;;13.05;;
25073;SDS011;13066;52.042;5.648;2023-04-06T06:02:15;27.42;;;13.35;;
25073;SDS011;13066;52.042;5.648;2023-04-06T06:04:47;24.75;;;12.40;;
25073;SDS011;13066;52.042;5.648;2023-04-06T06:07:17;23.92;;;12.98;;
25073;SDS011;13066;52.042;5.648;2023-04-06T06:09:52;26.20;;;13.65;;
25073;SDS011;13066;52.042;5.648;2023-04-06T06:12:30;28.70;;;13.80;;
25073;SDS011;13066;52.042;5.648;2023-04-06T06:14:59;25.85;;;13.98;;
25073;SDS011;13066;52.042;5.648;2023-04-06T06:17:31;25.23;;;13.88;;
25073;SDS011;13066;52.042;5.648;2023-04-06T06:19:59;34.83;;;14.15;;
25073;SDS011;13066;52.042;5.648;2023-04-06T06:22:27;26.63;;;13.43;;
25073;SDS011;13066;52.042;5.648;2023-04-06T06:24:56;27.83;;;14.70;;
25073;SDS011;13066;52.042;5.648;2023-04-06T06:27:24;28.33;;;15.43;;
25073;SDS011;13066;52.042;5.648;2023-04-06T06:29:53;27.67;;;14.18;;
25073;SDS011;13066;52.042;5.648;2023-04-06T06:32:23;26.42;;;14.70;;
25073;SDS011;13066;52.042;5.648;2023-04-06T06:34:52;35.67;;;14.73;;
25073;SDS011;13066;52.042;5.648;2023-04-06T06:37:20;24.90;;;13.98;;
25073;SDS011;13066;52.042;5.648;2023-04-06T06:39:48;37.00;;;14.90;;
25073;SDS011;13066;52.042;5.648;2023-04-06T06:42:18;31.83;;;15.13;;
25073;SDS011;13066;52.042;5.648;2023-04-06T06:45:01;29.30;;;15.02;;
25073;SDS011;13066;52.042;5.648;2023-04-06T06:47:29;27.30;;;14.73;;
25073;SDS011;13066;52.042;5.648;2023-04-06T06:49:57;31.95;;;15.20;;
25073;SDS011;13066;52.042;5.648;2023-04-06T06:52:25;26.40;;;14.55;;
25073;SDS011;13066;52.042;5.648;2023-04-06T06:54:53;29.13;;;14.18;;
25073;SDS011;13066;52.042;5.648;2023-04-06T06:57:23;30.50;;;14.82;;
25073;SDS011;13066;52.042;5.648;2023-04-06T06:59:51;31.05;;;14.45;;
25073;SDS011;13066;52.042;5.648;2023-04-06T07:02:21;28.40;;;14.48;;
25073;SDS011;13066;52.042;5.648;2023-04-06T07:04:49;33.50;;;15.48;;
25073;SDS011;13066;52.042;5.648;2023-04-06T07:07:17;31.33;;;14.88;;
25073;SDS011;13066;52.042;5.648;2023-04-06T07:09:47;23.92;;;13.82;;
25073;SDS011;13066;52.042;5.648;2023-04-06T07:12:15;30.83;;;15.25;;
25073;SDS011;13066;52.042;5.648;2023-04-06T07:14:43;34.75;;;15.75;;
25073;SDS011;13066;52.042;5.648;2023-04-06T07:17:11;31.08;;;14.98;;
25073;SDS011;13066;52.042;5.648;2023-04-06T07:19:41;29.25;;;15.13;;
25073;SDS011;13066;52.042;5.648;2023-04-06T07:22:09;29.83;;;15.25;;
25073;SDS011;13066;52.042;5.648;2023-04-06T07:24:37;30.00;;;15.27;;
25073;SDS011;13066;52.042;5.648;2023-04-06T07:27:06;33.20;;;15.45;;
25073;SDS011;13066;52.042;5.648;2023-04-06T07:29:33;30.60;;;15.32;;
25073;SDS011;13066;52.042;5.648;2023-04-06T07:32:01;27.27;;;15.35;;
25073;SDS011;13066;52.042;5.648;2023-04-06T07:34:31;28.83;;;16.02;;
25073;SDS011;13066;52.042;5.648;2023-04-06T07:37:00;27.08;;;15.02;;
25073;SDS011;13066;52.042;5.648;2023-04-06T07:39:30;26.00;;;15.23;;
25073;SDS011;13066;52.042;5.648;2023-04-06T07:41:58;27.50;;;15.27;;
25073;SDS011;13066;52.042;5.648;2023-04-06T07:44:26;25.92;;;15.88;;
25073;SDS011;13066;52.042;5.648;2023-04-06T07:46:55;26.42;;;15.77;;
25073;SDS011;13066;52.042;5.648;2023-04-06T07:49:23;28.38;;;16.45;;
25073;SDS011;13066;52.042;5.648;2023-04-06T07:51:51;28.45;;;15.95;;
25073;SDS011;13066;52.042;5.648;2023-04-06T07:54:20;29.98;;;16.13;;
25073;SDS011;13066;52.042;5.648;2023-04-06T07:56:48;30.05;;;15.88;;
25073;SDS011;13066;52.042;5.648;2023-04-06T07:59:16;33.33;;;16.23;;
25073;SDS011;13066;52.042;5.648;2023-04-06T08:01:44;34.80;;;15.38;;
25073;SDS011;13066;52.042;5.648;2023-04-06T08:04:12;32.75;;;15.75;;
25073;SDS011;13066;52.042;5.648;2023-04-06T08:06:40;32.78;;;15.35;;
25073;SDS011;13066;52.042;5.648;2023-04-06T08:09:08;33.38;;;15.25;;
25073;SDS011;13066;52.042;5.648;2023-04-06T08:11:37;34.35;;;16.48;;
25073;SDS011;13066;52.042;5.648;2023-04-06T08:14:05;28.92;;;16.15;;
25073;SDS011;13066;52.042;5.648;2023-04-06T08:16:34;34.95;;;16.23;;
25073;SDS011;13066;52.042;5.648;2023-04-06T08:19:02;35.30;;;15.73;;
25073;SDS011;13066;52.042;5.648;2023-04-06T08:21:30;30.15;;;16.42;;
25073;SDS011;13066;52.042;5.648;2023-04-06T08:23:58;28.98;;;16.48;;
25073;SDS011;13066;52.042;5.648;2023-04-06T08:26:26;29.67;;;16.40;;
25073;SDS011;13066;52.042;5.648;2023-04-06T08:28:55;30.30;;;17.02;;
25073;SDS011;13066;52.042;5.648;2023-04-06T08:31:23;29.13;;;17.05;;
25073;SDS011;13066;52.042;5.648;2023-04-06T08:33:52;28.55;;;16.20;;
25073;SDS011;13066;52.042;5.648;2023-04-06T08:36:20;30.35;;;16.45;;
25073;SDS011;13066;52.042;5.648;2023-04-06T08:38:49;28.45;;;16.27;;
25073;SDS011;13066;52.042;5.648;2023-04-06T08:41:17;33.92;;;15.98;;
25073;SDS011;13066;52.042;5.648;2023-04-06T08:43:46;28.80;;;16.20;;
25073;SDS011;13066;52.042;5.648;2023-04-06T08:46:17;30.05;;;16.20;;
25073;SDS011;13066;52.042;5.648;2023-04-06T08:48:45;33.80;;;17.60;;
25073;SDS011;13066;52.042;5.648;2023-04-06T08:51:15;30.98;;;16.95;;
25073;SDS011;13066;52.042;5.648;2023-04-06T08:53:43;28.10;;;16.83;;
25073;SDS011;13066;52.042;5.648;2023-04-06T08:56:11;35.00;;;17.52;;
25073;SDS011;13066;52.042;5.648;2023-04-06T08:58:39;31.83;;;18.02;;
25073;SDS011;13066;52.042;5.648;2023-04-06T09:01:08;30.30;;;17.60;;
25073;SDS011;13066;52.042;5.648;2023-04-06T09:03:38;28.17;;;17.17;;
25073;SDS011;13066;52.042;5.648;2023-04-06T09:06:07;33.63;;;17.13;;
25073;SDS011;13066;52.042;5.648;2023-04-06T09:08:38;31.88;;;17.55;;
25073;SDS011;13066;52.042;5.648;2023-04-06T09:11:06;32.28;;;17.58;;
25073;SDS011;13066;52.042;5.648;2023-04-06T09:13:44;28.92;;;16.75;;
25073;SDS011;13066;52.042;5.648;2023-04-06T09:16:12;36.58;;;17.48;;
25073;SDS011;13066;52.042;5.648;2023-04-06T09:18:42;31.77;;;18.00;;
25073;SDS011;13066;52.042;5.648;2023-04-06T09:21:10;32.35;;;17.35;;
25073;SDS011;13066;52.042;5.648;2023-04-06T09:23:38;31.98;;;17.98;;
25073;SDS011;13066;52.042;5.648;2023-04-06T09:26:07;35.75;;;17.17;;
25073;SDS011;13066;52.042;5.648;2023-04-06T09:28:45;31.55;;;19.27;;
25073;SDS011;13066;52.042;5.648;2023-04-06T09:31:14;32.08;;;18.33;;
25073;SDS011;13066;52.042;5.648;2023-04-06T09:33:45;29.65;;;18.05;;
25073;SDS011;13066;52.042;5.648;2023-04-06T09:36:13;33.25;;;18.60;;
25073;SDS011;13066;52.042;5.648;2023-04-06T09:38:51;40.28;;;19.08;;
25073;SDS011;13066;52.042;5.648;2023-04-06T09:41:21;35.53;;;18.80;;
25073;SDS011;13066;52.042;5.648;2023-04-06T09:43:51;37.15;;;19.48;;
25073;SDS011;13066;52.042;5.648;2023-04-06T09:46:20;36.90;;;19.63;;
25073;SDS011;13066;52.042;5.648;2023-04-06T09:48:51;31.40;;;18.83;;
25073;SDS011;13066;52.042;5.648;2023-04-06T09:51:20;30.83;;;19.30;;
25073;SDS011;13066;52.042;5.648;2023-04-06T09:53:49;33.83;;;18.33;;
25073;SDS011;13066;52.042;5.648;2023-04-06T09:56:20;34.72;;;18.55;;
25073;SDS011;13066;52.042;5.648;2023-04-06T09:58:52;36.40;;;18.25;;
25073;SDS011;13066;52.042;5.648;2023-04-06T10:01:25;32.20;;;18.38;;
25073;SDS011;13066;52.042;5.648;2023-04-06T10:03:56;32.80;;;19.65;;
25073;SDS011;13066;52.042;5.648;2023-04-06T10:06:31;33.58;;;19.30;;
25073;SDS011;13066;52.042;5.648;2023-04-06T10:09:02;39.15;;;18.90;;
25073;SDS011;13066;52.042;5.648;2023-04-06T10:11:32;34.40;;;19.85;;
25073;SDS011;13066;52.042;5.648;2023-04-06T10:14:00;33.40;;;19.67;;
25073;SDS011;13066;52.042;5.648;2023-04-06T10:16:28;34.90;;;18.58;;
25073;SDS011;13066;52.042;5.648;2023-04-06T10:18:58;34.47;;;19.00;;
25073;SDS011;13066;52.042;5.648;2023-04-06T10:21:29;29.40;;;18.35;;
25073;SDS011;13066;52.042;5.648;2023-04-06T10:23:59;36.17;;;18.60;;
25073;SDS011;13066;52.042;5.648;2023-04-06T10:26:28;32.17;;;18.27;;
25073;SDS011;13066;52.042;5.648;2023-04-06T10:29:02;33.08;;;17.48;;
25073;SDS011;13066;52.042;5.648;2023-04-06T10:31:31;30.15;;;18.30;;
25073;SDS011;13066;52.042;5.648;2023-04-06T10:34:01;34.90;;;17.48;;
25073;SDS011;13066;52.042;5.648;2023-04-06T10:36:31;28.40;;;17.77;;
25073;SDS011;13066;52.042;5.648;2023-04-06T10:39:00;32.65;;;17.83;;
25073;SDS011;13066;52.042;5.648;2023-04-06T10:41:33;35.05;;;17.38;;
25073;SDS011;13066;52.042;5.648;2023-04-06T10:44:01;29.80;;;17.38;;
25073;SDS011;13066;52.042;5.648;2023-04-06T10:46:30;25.90;;;15.23;;
25073;SDS011;13066;52.042;5.648;2023-04-06T10:49:08;26.92;;;15.63;;
25073;SDS011;13066;52.042;5.648;2023-04-06T10:51:39;23.27;;;14.35;;
25073;SDS011;13066;52.042;5.648;2023-04-06T10:54:07;31.02;;;15.45;;
25073;SDS011;13066;52.042;5.648;2023-04-06T10:56:36;26.63;;;15.05;;
25073;SDS011;13066;52.042;5.648;2023-04-06T10:59:05;24.90;;;15.15;;
25073;SDS011;13066;52.042;5.648;2023-04-06T11:01:33;29.63;;;15.80;;
25073;SDS011;13066;52.042;5.648;2023-04-06T11:04:01;23.80;;;14.73;;
25073;SDS011;13066;52.042;5.648;2023-04-06T11:06:31;27.90;;;15.20;;
25073;SDS011;13066;52.042;5.648;2023-04-06T11:08:58;26.15;;;15.50;;
25073;SDS011;13066;52.042;5.648;2023-04-06T11:11:26;18.52;;;12.23;;
25073;SDS011;13066;52.042;5.648;2023-04-06T11:13:56;19.08;;;11.98;;
25073;SDS011;13066;52.042;5.648;2023-04-06T11:16:26;15.52;;;10.48;;
25073;SDS011;13066;52.042;5.648;2023-04-06T11:18:55;15.60;;;10.75;;
25073;SDS011;13066;52.042;5.648;2023-04-06T11:21:36;17.35;;;10.48;;
25073;SDS011;13066;52.042;5.648;2023-04-06T11:24:06;18.80;;;11.00;;
25073;SDS011;13066;52.042;5.648;2023-04-06T11:26:41;16.95;;;10.15;;
25073;SDS011;13066;52.042;5.648;2023-04-06T11:29:11;15.43;;;9.50;;
25073;SDS011;13066;52.042;5.648;2023-04-06T11:31:40;15.20;;;8.70;;
25073;SDS011;13066;52.042;5.648;2023-04-06T11:34:09;16.50;;;9.35;;
25073;SDS011;13066;52.042;5.648;2023-04-06T11:36:41;14.10;;;8.77;;
25073;SDS011;13066;52.042;5.648;2023-04-06T11:39:09;15.30;;;9.25;;
25073;SDS011;13066;52.042;5.648;2023-04-06T11:41:37;13.77;;;9.02;;
25073;SDS011;13066;52.042;5.648;2023-04-06T11:44:05;14.60;;;9.25;;
25073;SDS011;13066;52.042;5.648;2023-04-06T11:46:34;15.60;;;10.25;;
25073;SDS011;13066;52.042;5.648;2023-04-06T11:49:02;14.50;;;8.38;;
25073;SDS011;13066;52.042;5.648;2023-04-06T11:51:30;13.88;;;8.82;;
25073;SDS011;13066;52.042;5.648;2023-04-06T11:53:59;15.77;;;9.18;;
25073;SDS011;13066;52.042;5.648;2023-04-06T11:56:28;15.70;;;9.48;;
25073;SDS011;13066;52.042;5.648;2023-04-06T11:58:57;12.38;;;8.40;;
25073;SDS011;13066;52.042;5.648;2023-04-06T12:01:26;13.43;;;8.77;;
25073;SDS011;13066;52.042;5.648;2023-04-06T12:03:54;18.02;;;8.48;;
25073;SDS011;13066;52.042;5.648;2023-04-06T12:06:22;15.50;;;8.77;;
25073;SDS011;13066;52.042;5.648;2023-04-06T12:08:51;13.48;;;8.60;;
25073;SDS011;13066;52.042;5.648;2023-04-06T12:11:21;14.93;;;9.02;;
25073;SDS011;13066;52.042;5.648;2023-04-06T12:13:49;13.52;;;8.40;;
25073;SDS011;13066;52.042;5.648;2023-04-06T12:16:17;14.77;;;8.52;;
25073;SDS011;13066;52.042;5.648;2023-04-06T12:18:45;10.63;;;7.70;;
25073;SDS011;13066;52.042;5.648;2023-04-06T12:21:13;13.15;;;7.55;;
25073;SDS011;13066;52.042;5.648;2023-04-06T12:23:41;12.80;;;7.45;;
25073;SDS011;13066;52.042;5.648;2023-04-06T12:26:09;10.27;;;6.47;;
25073;SDS011;13066;52.042;5.648;2023-04-06T12:28:40;8.13;;;5.85;;
25073;SDS011;13066;52.042;5.648;2023-04-06T12:31:13;9.77;;;6.82;;
25073;SDS011;13066;52.042;5.648;2023-04-06T12:33:42;12.20;;;7.05;;
25073;SDS011;13066;52.042;5.648;2023-04-06T12:36:11;11.02;;;6.63;;
25073;SDS011;13066;52.042;5.648;2023-04-06T12:38:39;10.43;;;6.00;;
25073;SDS011;13066;52.042;5.648;2023-04-06T12:41:07;13.40;;;6.53;;
25073;SDS011;13066;52.042;5.648;2023-04-06T12:43:35;11.18;;;6.70;;
25073;SDS011;13066;52.042;5.648;2023-04-06T12:46:05;13.98;;;6.85;;
25073;SDS011;13066;52.042;5.648;2023-04-06T12:48:33;13.70;;;6.80;;
25073;SDS011;13066;52.042;5.648;2023-04-06T12:51:02;10.70;;;6.78;;
25073;SDS011;13066;52.042;5.648;2023-04-06T12:53:31;15.68;;;7.13;;
25073;SDS011;13066;52.042;5.648;2023-04-06T12:56:01;10.98;;;6.35;;
25073;SDS011;13066;52.042;5.648;2023-04-06T12:58:29;12.90;;;6.82;;
25073;SDS011;13066;52.042;5.648;2023-04-06T13:00:57;10.95;;;7.10;;
25073;SDS011;13066;52.042;5.648;2023-04-06T13:03:31;14.43;;;7.25;;
25073;SDS011;13066;52.042;5.648;2023-04-06T13:05:59;12.20;;;7.13;;
25073;SDS011;13066;52.042;5.648;2023-04-06T13:08:27;11.55;;;7.13;;
25073;SDS011;13066;52.042;5.648;2023-04-06T13:10:56;10.32;;;6.47;;
25073;SDS011;13066;52.042;5.648;2023-04-06T13:13:24;12.43;;;7.47;;
25073;SDS011;13066;52.042;5.648;2023-04-06T13:15:53;12.43;;;7.28;;
25073;SDS011;13066;52.042;5.648;2023-04-06T13:18:21;10.13;;;7.25;;
25073;SDS011;13066;52.042;5.648;2023-04-06T13:20:51;13.15;;;6.70;;
25073;SDS011;13066;52.042;5.648;2023-04-06T13:23:21;10.70;;;7.55;;
25073;SDS011;13066;52.042;5.648;2023-04-06T13:25:56;14.32;;;7.20;;
25073;SDS011;13066;52.042;5.648;2023-04-06T13:28:25;11.70;;;7.20;;
25073;SDS011;13066;52.042;5.648;2023-04-06T13:30:53;12.48;;;7.22;;
25073;SDS011;13066;52.042;5.648;2023-04-06T13:33:22;12.35;;;8.00;;
25073;SDS011;13066;52.042;5.648;2023-04-06T13:35:50;11.13;;;7.38;;
25073;SDS011;13066;52.042;5.648;2023-04-06T13:38:19;12.38;;;7.45;;
25073;SDS011;13066;52.042;5.648;2023-04-06T13:40:48;14.35;;;7.50;;
25073;SDS011;13066;52.042;5.648;2023-04-06T13:43:17;12.32;;;7.38;;
25073;SDS011;13066;52.042;5.648;2023-04-06T13:45:48;12.75;;;8.18;;
25073;SDS011;13066;52.042;5.648;2023-04-06T13:48:17;11.27;;;7.22;;
25073;SDS011;13066;52.042;5.648;2023-04-06T13:50:45;11.57;;;8.00;;
25073;SDS011;13066;52.042;5.648;2023-04-06T13:53:14;11.68;;;7.10;;
25073;SDS011;13066;52.042;5.648;2023-04-06T13:55:42;11.57;;;7.75;;
25073;SDS011;13066;52.042;5.648;2023-04-06T13:58:11;13.25;;;7.38;;
25073;SDS011;13066;52.042;5.648;2023-04-06T14:00:39;12.90;;;8.10;;
25073;SDS011;13066;52.042;5.648;2023-04-06T14:03:07;12.93;;;7.63;;
25073;SDS011;13066;52.042;5.648;2023-04-06T14:05:38;13.95;;;8.48;;
25073;SDS011;13066;52.042;5.648;2023-04-06T14:08:06;13.00;;;8.30;;
25073;SDS011;13066;52.042;5.648;2023-04-06T14:10:37;11.85;;;7.95;;
25073;SDS011;13066;52.042;5.648;2023-04-06T14:13:06;12.85;;;8.15;;
25073;SDS011;13066;52.042;5.648;2023-04-06T14:15:34;14.10;;;7.85;;
25073;SDS011;13066;52.042;5.648;2023-04-06T14:18:02;14.77;;;8.55;;
25073;SDS011;13066;52.042;5.648;2023-04-06T14:20:30;14.52;;;8.63;;
25073;SDS011;13066;52.042;5.648;2023-04-06T14:22:59;13.65;;;8.32;;
25073;SDS011;13066;52.042;5.648;2023-04-06T14:25:27;14.88;;;9.05;;
25073;SDS011;13066;52.042;5.648;2023-04-06T14:27:59;14.30;;;9.27;;
25073;SDS011;13066;52.042;5.648;2023-04-06T14:30:27;14.88;;;8.35;;
25073;SDS011;13066;52.042;5.648;2023-04-06T14:32:57;16.15;;;9.20;;
25073;SDS011;13066;52.042;5.648;2023-04-06T14:35:26;17.00;;;9.90;;
25073;SDS011;13066;52.042;5.648;2023-04-06T14:37:55;15.68;;;9.65;;
25073;SDS011;13066;52.042;5.648;2023-04-06T14:40:24;14.30;;;9.25;;
25073;SDS011;13066;52.042;5.648;2023-04-06T14:42:52;13.85;;;9.18;;
25073;SDS011;13066;52.042;5.648;2023-04-06T14:45:26;19.52;;;9.90;;
25073;SDS011;13066;52.042;5.648;2023-04-06T14:47:54;16.45;;;9.75;;
25073;SDS011;13066;52.042;5.648;2023-04-06T14:50:22;16.48;;;9.65;;